sensor_id;sensor_type;location;lat;lon;timestamp;P1;durP1;ratioP1;P2;durP2;ratioP2
43819;SDS011;67762;52.476;6.046;2023-08-06T00:01:51;1999.90;;;999.90;;
43819;SDS011;67762;52.476;6.046;2023-08-06T00:04:17;1999.90;;;999.90;;
43819;SDS011;67762;52.476;6.046;2023-08-06T00:06:42;1999.90;;;999.90;;
43819;SDS011;67762;52.476;6.046;2023-08-06T00:09:08;1999.90;;;999.90;;
43819;SDS011;67762;52.476;6.046;2023-08-06T00:11:34;1999.90;;;999.90;;
43819;SDS011;67762;52.476;6.046;2023-08-06T00:13:59;1999.90;;;999.90;;
43819;SDS011;67762;52.476;6.046;2023-08-06T00:16:25;1999.90;;;999.90;;
43819;SDS011;67762;52.476;6.046;2023-08-06T00:18:50;1999.90;;;999.90;;
43819;SDS011;67762;52.476;6.046;2023-08-06T00:21:16;1999.90;;;999.90;;
43819;SDS011;67762;52.476;6.046;2023-08-06T00:23:41;1999.90;;;999.90;;
43819;SDS011;67762;52.476;6.046;2023-08-06T00:26:07;1999.90;;;999.90;;
43819;SDS011;67762;52.476;6.046;2023-08-06T00:28:33;1999.90;;;999.90;;
43819;SDS011;67762;52.476;6.046;2023-08-06T00:30:59;1999.90;;;999.90;;
43819;SDS011;67762;52.476;6.046;2023-08-06T00:33:24;1999.90;;;999.90;;
43819;SDS011;67762;52.476;6.046;2023-08-06T00:35:50;1999.90;;;999.90;;
43819;SDS011;67762;52.476;6.046;2023-08-06T00:38:16;1999.90;;;999.90;;
43819;SDS011;67762;52.476;6.046;2023-08-06T00:40:42;1999.90;;;999.90;;
43819;SDS011;67762;52.476;6.046;2023-08-06T00:43:08;1999.90;;;999.90;;
43819;SDS011;67762;52.476;6.046;2023-08-06T00:45:34;1999.90;;;999.90;;
43819;SDS011;67762;52.476;6.046;2023-08-06T00:48:02;1999.90;;;999.90;;
43819;SDS011;67762;52.476;6.046;2023-08-06T00:50:30;1999.90;;;999.90;;
43819;SDS011;67762;52.476;6.046;2023-08-06T00:52:56;1999.90;;;999.90;;
43819;SDS011;67762;52.476;6.046;2023-08-06T00:55:22;1999.90;;;999.90;;
43819;SDS011;67762;52.476;6.046;2023-08-06T00:57:48;1999.90;;;999.90;;
43819;SDS011;67762;52.476;6.046;2023-08-06T01:00:13;1999.90;;;999.90;;
43819;SDS011;67762;52.476;6.046;2023-08-06T01:02:39;1999.90;;;999.90;;
43819;SDS011;67762;52.476;6.046;2023-08-06T01:05:05;1999.90;;;999.90;;
43819;SDS011;67762;52.476;6.046;2023-08-06T01:12:51;1999.90;;;999.90;;
43819;SDS011;67762;52.476;6.046;2023-08-06T01:15:46;1999.90;;;999.90;;
43819;SDS011;67762;52.476;6.046;2023-08-06T01:18:14;1999.90;;;999.90;;
43819;SDS011;67762;52.476;6.046;2023-08-06T01:20:40;1999.90;;;999.90;;
43819;SDS011;67762;52.476;6.046;2023-08-06T01:23:07;1999.90;;;999.90;;
43819;SDS011;67762;52.476;6.046;2023-08-06T01:25:33;1999.90;;;999.90;;
43819;SDS011;67762;52.476;6.046;2023-08-06T01:28:20;1999.90;;;999.90;;
43819;SDS011;67762;52.476;6.046;2023-08-06T01:30:53;1999.90;;;999.90;;
43819;SDS011;67762;52.476;6.046;2023-08-06T01:33:24;1999.90;;;999.90;;
43819;SDS011;67762;52.476;6.046;2023-08-06T01:35:53;1999.90;;;999.90;;
43819;SDS011;67762;52.476;6.046;2023-08-06T01:38:20;1999.90;;;999.90;;
43819;SDS011;67762;52.476;6.046;2023-08-06T01:40:45;1999.90;;;999.90;;
43819;SDS011;67762;52.476;6.046;2023-08-06T01:43:11;1999.90;;;999.90;;
43819;SDS011;67762;52.476;6.046;2023-08-06T01:45:37;1999.90;;;999.90;;
43819;SDS011;67762;52.476;6.046;2023-08-06T01:48:03;1999.90;;;999.90;;
43819;SDS011;67762;52.476;6.046;2023-08-06T01:50:28;1999.90;;;999.90;;
43819;SDS011;67762;52.476;6.046;2023-08-06T01:52:54;1999.90;;;999.90;;
43819;SDS011;67762;52.476;6.046;2023-08-06T01:55:20;1999.90;;;999.90;;
43819;SDS011;67762;52.476;6.046;2023-08-06T01:57:45;1999.90;;;999.90;;
43819;SDS011;67762;52.476;6.046;2023-08-06T02:00:11;1999.90;;;999.90;;
43819;SDS011;67762;52.476;6.046;2023-08-06T02:02:39;1999.90;;;999.90;;
43819;SDS011;67762;52.476;6.046;2023-08-06T02:05:06;1999.90;;;999.90;;
43819;SDS011;67762;52.476;6.046;2023-08-06T02:07:32;1999.90;;;999.90;;
43819;SDS011;67762;52.476;6.046;2023-08-06T02:09:57;1999.90;;;999.90;;
43819;SDS011;67762;52.476;6.046;2023-08-06T02:12:23;1999.90;;;999.90;;
43819;SDS011;67762;52.476;6.046;2023-08-06T02:14:49;1999.90;;;999.90;;
43819;SDS011;67762;52.476;6.046;2023-08-06T02:17:15;1999.90;;;999.90;;
43819;SDS011;67762;52.476;6.046;2023-08-06T02:19:40;1999.90;;;999.90;;
43819;SDS011;67762;52.476;6.046;2023-08-06T02:22:08;1999.90;;;999.90;;
43819;SDS011;67762;52.476;6.046;2023-08-06T02:24:34;1999.90;;;999.90;;
43819;SDS011;67762;52.476;6.046;2023-08-06T02:26:59;1999.90;;;999.90;;
43819;SDS011;67762;52.476;6.046;2023-08-06T02:29:25;1999.90;;;999.90;;
43819;SDS011;67762;52.476;6.046;2023-08-06T02:31:50;1999.90;;;999.90;;
43819;SDS011;67762;52.476;6.046;2023-08-06T02:34:16;1999.90;;;999.90;;
43819;SDS011;67762;52.476;6.046;2023-08-06T02:36:42;1999.90;;;999.90;;
43819;SDS011;67762;52.476;6.046;2023-08-06T02:39:07;1999.90;;;999.90;;
43819;SDS011;67762;52.476;6.046;2023-08-06T02:41:34;1999.90;;;999.90;;
43819;SDS011;67762;52.476;6.046;2023-08-06T02:43:59;1999.90;;;999.90;;
43819;SDS011;67762;52.476;6.046;2023-08-06T02:46:25;1999.90;;;999.90;;
43819;SDS011;67762;52.476;6.046;2023-08-06T02:48:51;1999.90;;;999.90;;
43819;SDS011;67762;52.476;6.046;2023-08-06T02:51:17;1999.90;;;999.90;;
43819;SDS011;67762;52.476;6.046;2023-08-06T02:53:42;1999.90;;;999.90;;
43819;SDS011;67762;52.476;6.046;2023-08-06T02:56:10;1999.90;;;999.90;;
43819;SDS011;67762;52.476;6.046;2023-08-06T02:58:51;1999.90;;;999.90;;
43819;SDS011;67762;52.476;6.046;2023-08-06T03:01:27;1999.90;;;999.90;;
43819;SDS011;67762;52.476;6.046;2023-08-06T03:03:58;1999.90;;;999.90;;
43819;SDS011;67762;52.476;6.046;2023-08-06T03:06:30;1999.90;;;999.90;;
43819;SDS011;67762;52.476;6.046;2023-08-06T03:08:57;1999.90;;;999.90;;
43819;SDS011;67762;52.476;6.046;2023-08-06T03:11:23;1999.90;;;999.90;;
43819;SDS011;67762;52.476;6.046;2023-08-06T03:13:53;1999.90;;;999.90;;
43819;SDS011;67762;52.476;6.046;2023-08-06T03:16:19;1999.90;;;999.90;;
43819;SDS011;67762;52.476;6.046;2023-08-06T03:18:45;1999.90;;;999.90;;
43819;SDS011;67762;52.476;6.046;2023-08-06T03:21:11;1999.90;;;999.90;;
43819;SDS011;67762;52.476;6.046;2023-08-06T03:23:37;1999.90;;;999.90;;
43819;SDS011;67762;52.476;6.046;2023-08-06T03:26:04;1999.90;;;999.90;;
43819;SDS011;67762;52.476;6.046;2023-08-06T03:28:31;1999.90;;;999.90;;
43819;SDS011;67762;52.476;6.046;2023-08-06T03:31:04;1999.90;;;999.90;;
43819;SDS011;67762;52.476;6.046;2023-08-06T03:33:40;1999.90;;;999.90;;
43819;SDS011;67762;52.476;6.046;2023-08-06T03:36:10;1999.90;;;999.90;;
43819;SDS011;67762;52.476;6.046;2023-08-06T03:38:36;1999.90;;;999.90;;
43819;SDS011;67762;52.476;6.046;2023-08-06T03:41:05;1999.90;;;999.90;;
43819;SDS011;67762;52.476;6.046;2023-08-06T03:43:31;1999.90;;;999.90;;
43819;SDS011;67762;52.476;6.046;2023-08-06T03:45:57;1999.90;;;999.90;;
43819;SDS011;67762;52.476;6.046;2023-08-06T03:48:23;1999.90;;;999.90;;
43819;SDS011;67762;52.476;6.046;2023-08-06T03:50:49;1999.90;;;999.90;;
43819;SDS011;67762;52.476;6.046;2023-08-06T03:53:16;1999.90;;;999.90;;
43819;SDS011;67762;52.476;6.046;2023-08-06T03:55:41;1999.90;;;999.90;;
43819;SDS011;67762;52.476;6.046;2023-08-06T03:58:08;1999.90;;;999.90;;
43819;SDS011;67762;52.476;6.046;2023-08-06T04:00:33;1999.90;;;999.90;;
43819;SDS011;67762;52.476;6.046;2023-08-06T04:02:59;1999.90;;;999.90;;
43819;SDS011;67762;52.476;6.046;2023-08-06T04:05:26;1999.90;;;999.90;;
43819;SDS011;67762;52.476;6.046;2023-08-06T04:07:51;1999.90;;;999.90;;
43819;SDS011;67762;52.476;6.046;2023-08-06T04:10:17;1999.90;;;999.90;;
43819;SDS011;67762;52.476;6.046;2023-08-06T04:12:43;1999.90;;;999.90;;
43819;SDS011;67762;52.476;6.046;2023-08-06T04:15:08;1999.90;;;999.90;;
43819;SDS011;67762;52.476;6.046;2023-08-06T04:17:34;1999.90;;;999.90;;
43819;SDS011;67762;52.476;6.046;2023-08-06T04:20:00;1999.90;;;999.90;;
43819;SDS011;67762;52.476;6.046;2023-08-06T04:22:26;1999.90;;;999.90;;
43819;SDS011;67762;52.476;6.046;2023-08-06T04:24:51;1999.90;;;999.90;;
43819;SDS011;67762;52.476;6.046;2023-08-06T04:27:18;1999.90;;;999.90;;
43819;SDS011;67762;52.476;6.046;2023-08-06T04:29:45;1999.90;;;999.90;;
43819;SDS011;67762;52.476;6.046;2023-08-06T04:32:11;1999.90;;;999.90;;
43819;SDS011;67762;52.476;6.046;2023-08-06T04:34:43;1999.90;;;999.90;;
43819;SDS011;67762;52.476;6.046;2023-08-06T04:37:08;1999.90;;;999.90;;
43819;SDS011;67762;52.476;6.046;2023-08-06T04:39:34;1999.90;;;999.90;;
43819;SDS011;67762;52.476;6.046;2023-08-06T04:42:00;1999.90;;;999.90;;
43819;SDS011;67762;52.476;6.046;2023-08-06T04:44:26;1999.90;;;999.90;;
43819;SDS011;67762;52.476;6.046;2023-08-06T04:46:52;1999.90;;;999.90;;
43819;SDS011;67762;52.476;6.046;2023-08-06T04:49:19;1999.90;;;999.90;;
43819;SDS011;67762;52.476;6.046;2023-08-06T04:51:45;1999.90;;;999.90;;
43819;SDS011;67762;52.476;6.046;2023-08-06T04:54:11;1999.90;;;999.90;;
43819;SDS011;67762;52.476;6.046;2023-08-06T04:56:36;1999.90;;;999.90;;
43819;SDS011;67762;52.476;6.046;2023-08-06T04:59:02;1999.90;;;999.90;;
43819;SDS011;67762;52.476;6.046;2023-08-06T05:01:28;1999.90;;;999.90;;
43819;SDS011;67762;52.476;6.046;2023-08-06T05:03:54;1999.90;;;999.90;;
43819;SDS011;67762;52.476;6.046;2023-08-06T05:06:19;1999.90;;;999.90;;
43819;SDS011;67762;52.476;6.046;2023-08-06T05:08:45;1999.90;;;999.90;;
43819;SDS011;67762;52.476;6.046;2023-08-06T05:11:10;1999.90;;;999.90;;
43819;SDS011;67762;52.476;6.046;2023-08-06T05:13:36;1999.90;;;999.90;;
43819;SDS011;67762;52.476;6.046;2023-08-06T05:16:02;1999.90;;;999.90;;
43819;SDS011;67762;52.476;6.046;2023-08-06T05:18:27;1999.90;;;999.90;;
43819;SDS011;67762;52.476;6.046;2023-08-06T05:20:53;1999.90;;;999.90;;
43819;SDS011;67762;52.476;6.046;2023-08-06T05:23:19;1999.90;;;999.90;;
43819;SDS011;67762;52.476;6.046;2023-08-06T05:25:45;1999.90;;;999.90;;
43819;SDS011;67762;52.476;6.046;2023-08-06T05:28:10;1999.90;;;999.90;;
43819;SDS011;67762;52.476;6.046;2023-08-06T05:30:39;1999.90;;;999.90;;
43819;SDS011;67762;52.476;6.046;2023-08-06T05:33:05;1999.90;;;999.90;;
43819;SDS011;67762;52.476;6.046;2023-08-06T05:35:31;1999.90;;;999.90;;
43819;SDS011;67762;52.476;6.046;2023-08-06T05:37:57;1999.90;;;999.90;;
43819;SDS011;67762;52.476;6.046;2023-08-06T05:40:22;1999.90;;;999.90;;
43819;SDS011;67762;52.476;6.046;2023-08-06T05:42:51;1999.90;;;999.90;;
43819;SDS011;67762;52.476;6.046;2023-08-06T05:45:18;1999.90;;;999.90;;
43819;SDS011;67762;52.476;6.046;2023-08-06T05:47:44;1999.90;;;999.90;;
43819;SDS011;67762;52.476;6.046;2023-08-06T05:50:09;1999.90;;;999.90;;
43819;SDS011;67762;52.476;6.046;2023-08-06T05:52:35;1999.90;;;999.90;;
43819;SDS011;67762;52.476;6.046;2023-08-06T05:55:01;1999.90;;;999.90;;
43819;SDS011;67762;52.476;6.046;2023-08-06T05:57:27;1999.90;;;999.90;;
43819;SDS011;67762;52.476;6.046;2023-08-06T05:59:52;1999.90;;;999.90;;
43819;SDS011;67762;52.476;6.046;2023-08-06T06:02:18;1999.90;;;999.90;;
43819;SDS011;67762;52.476;6.046;2023-08-06T06:04:44;1999.90;;;999.90;;
43819;SDS011;67762;52.476;6.046;2023-08-06T06:07:09;1999.90;;;999.90;;
43819;SDS011;67762;52.476;6.046;2023-08-06T06:09:35;1999.90;;;999.90;;
43819;SDS011;67762;52.476;6.046;2023-08-06T06:12:00;1999.90;;;999.90;;
43819;SDS011;67762;52.476;6.046;2023-08-06T06:14:26;1999.90;;;999.90;;
43819;SDS011;67762;52.476;6.046;2023-08-06T06:16:52;1999.90;;;999.90;;
43819;SDS011;67762;52.476;6.046;2023-08-06T06:19:18;1999.90;;;999.90;;
43819;SDS011;67762;52.476;6.046;2023-08-06T06:21:43;1999.90;;;999.90;;
43819;SDS011;67762;52.476;6.046;2023-08-06T06:24:09;1999.90;;;999.90;;
43819;SDS011;67762;52.476;6.046;2023-08-06T06:26:35;1999.90;;;999.90;;
43819;SDS011;67762;52.476;6.046;2023-08-06T06:29:00;1999.90;;;999.90;;
43819;SDS011;67762;52.476;6.046;2023-08-06T06:31:26;1999.90;;;999.90;;
43819;SDS011;67762;52.476;6.046;2023-08-06T06:33:51;1999.90;;;999.90;;
43819;SDS011;67762;52.476;6.046;2023-08-06T06:36:19;1999.90;;;999.90;;
43819;SDS011;67762;52.476;6.046;2023-08-06T06:38:45;1999.90;;;999.90;;
43819;SDS011;67762;52.476;6.046;2023-08-06T06:41:11;1999.90;;;999.90;;
43819;SDS011;67762;52.476;6.046;2023-08-06T06:43:37;1999.90;;;999.90;;
43819;SDS011;67762;52.476;6.046;2023-08-06T06:46:04;1999.90;;;999.90;;
43819;SDS011;67762;52.476;6.046;2023-08-06T06:48:31;1999.90;;;999.90;;
43819;SDS011;67762;52.476;6.046;2023-08-06T06:50:58;1999.90;;;999.90;;
43819;SDS011;67762;52.476;6.046;2023-08-06T06:53:24;1999.90;;;999.90;;
43819;SDS011;67762;52.476;6.046;2023-08-06T06:56:02;1999.90;;;999.90;;
43819;SDS011;67762;52.476;6.046;2023-08-06T06:58:29;1999.90;;;999.90;;
43819;SDS011;67762;52.476;6.046;2023-08-06T07:00:55;1999.90;;;999.90;;
43819;SDS011;67762;52.476;6.046;2023-08-06T07:03:20;1999.90;;;999.90;;
43819;SDS011;67762;52.476;6.046;2023-08-06T07:05:46;1999.90;;;999.90;;
43819;SDS011;67762;52.476;6.046;2023-08-06T07:08:12;1999.90;;;999.90;;
43819;SDS011;67762;52.476;6.046;2023-08-06T07:10:38;1999.90;;;999.90;;
43819;SDS011;67762;52.476;6.046;2023-08-06T07:13:05;1999.90;;;999.90;;
43819;SDS011;67762;52.476;6.046;2023-08-06T07:15:31;1999.90;;;999.90;;
43819;SDS011;67762;52.476;6.046;2023-08-06T07:17:57;1999.90;;;999.90;;
43819;SDS011;67762;52.476;6.046;2023-08-06T07:20:22;1999.90;;;999.90;;
43819;SDS011;67762;52.476;6.046;2023-08-06T07:22:48;1999.90;;;999.90;;
43819;SDS011;67762;52.476;6.046;2023-08-06T07:25:15;1999.90;;;999.90;;
43819;SDS011;67762;52.476;6.046;2023-08-06T07:27:41;1999.90;;;999.90;;
43819;SDS011;67762;52.476;6.046;2023-08-06T07:30:07;1999.90;;;999.90;;
43819;SDS011;67762;52.476;6.046;2023-08-06T07:32:33;1999.90;;;999.90;;
43819;SDS011;67762;52.476;6.046;2023-08-06T07:34:59;1999.90;;;999.90;;
43819;SDS011;67762;52.476;6.046;2023-08-06T07:37:28;1999.90;;;999.90;;
43819;SDS011;67762;52.476;6.046;2023-08-06T07:39:58;1999.90;;;999.90;;
43819;SDS011;67762;52.476;6.046;2023-08-06T07:42:23;1999.90;;;999.90;;
43819;SDS011;67762;52.476;6.046;2023-08-06T07:44:53;1999.90;;;999.90;;
43819;SDS011;67762;52.476;6.046;2023-08-06T07:47:20;1999.90;;;999.90;;
43819;SDS011;67762;52.476;6.046;2023-08-06T07:49:45;1999.90;;;999.90;;
43819;SDS011;67762;52.476;6.046;2023-08-06T07:52:11;1999.90;;;999.90;;
43819;SDS011;67762;52.476;6.046;2023-08-06T07:54:37;1999.90;;;999.90;;
43819;SDS011;67762;52.476;6.046;2023-08-06T07:57:02;1999.90;;;999.90;;
43819;SDS011;67762;52.476;6.046;2023-08-06T07:59:28;1999.90;;;999.90;;
43819;SDS011;67762;52.476;6.046;2023-08-06T08:01:54;1999.90;;;999.90;;
43819;SDS011;67762;52.476;6.046;2023-08-06T08:04:19;1999.90;;;999.90;;
43819;SDS011;67762;52.476;6.046;2023-08-06T08:06:46;1999.90;;;999.90;;
43819;SDS011;67762;52.476;6.046;2023-08-06T08:09:12;1999.90;;;999.90;;
43819;SDS011;67762;52.476;6.046;2023-08-06T08:11:39;1999.90;;;999.90;;
43819;SDS011;67762;52.476;6.046;2023-08-06T08:14:05;1999.90;;;999.90;;
43819;SDS011;67762;52.476;6.046;2023-08-06T08:16:31;1999.90;;;999.90;;
43819;SDS011;67762;52.476;6.046;2023-08-06T08:18:57;1999.90;;;999.90;;
43819;SDS011;67762;52.476;6.046;2023-08-06T08:21:23;1999.90;;;999.90;;
43819;SDS011;67762;52.476;6.046;2023-08-06T08:23:49;1999.90;;;999.90;;
43819;SDS011;67762;52.476;6.046;2023-08-06T08:26:15;1999.90;;;999.90;;
43819;SDS011;67762;52.476;6.046;2023-08-06T08:28:41;1999.90;;;999.90;;
43819;SDS011;67762;52.476;6.046;2023-08-06T08:31:11;1999.90;;;999.90;;
43819;SDS011;67762;52.476;6.046;2023-08-06T08:33:37;1999.90;;;999.90;;
43819;SDS011;67762;52.476;6.046;2023-08-06T08:36:03;1999.90;;;999.90;;
43819;SDS011;67762;52.476;6.046;2023-08-06T08:38:29;1999.90;;;999.90;;
43819;SDS011;67762;52.476;6.046;2023-08-06T08:40:54;1999.90;;;999.90;;
43819;SDS011;67762;52.476;6.046;2023-08-06T08:43:23;1999.90;;;999.90;;
43819;SDS011;67762;52.476;6.046;2023-08-06T08:45:52;1999.90;;;999.90;;
43819;SDS011;67762;52.476;6.046;2023-08-06T08:48:24;1999.90;;;999.90;;
43819;SDS011;67762;52.476;6.046;2023-08-06T08:50:50;1999.90;;;999.90;;
43819;SDS011;67762;52.476;6.046;2023-08-06T08:53:17;1999.90;;;999.90;;
43819;SDS011;67762;52.476;6.046;2023-08-06T08:55:47;1999.90;;;999.90;;
43819;SDS011;67762;52.476;6.046;2023-08-06T08:58:14;1999.90;;;999.90;;
43819;SDS011;67762;52.476;6.046;2023-08-06T09:00:44;1999.90;;;999.90;;
43819;SDS011;67762;52.476;6.046;2023-08-06T09:03:11;1999.90;;;999.90;;
43819;SDS011;67762;52.476;6.046;2023-08-06T09:05:37;1999.90;;;999.90;;
43819;SDS011;67762;52.476;6.046;2023-08-06T09:08:08;1999.90;;;999.90;;
43819;SDS011;67762;52.476;6.046;2023-08-06T09:10:37;1999.90;;;999.90;;
43819;SDS011;67762;52.476;6.046;2023-08-06T09:13:04;1999.90;;;999.90;;
43819;SDS011;67762;52.476;6.046;2023-08-06T09:15:29;1999.90;;;999.90;;
43819;SDS011;67762;52.476;6.046;2023-08-06T09:17:55;1999.90;;;999.90;;
43819;SDS011;67762;52.476;6.046;2023-08-06T09:20:21;1999.90;;;999.90;;
43819;SDS011;67762;52.476;6.046;2023-08-06T09:22:47;1999.90;;;999.90;;
43819;SDS011;67762;52.476;6.046;2023-08-06T09:25:23;1999.90;;;999.90;;
43819;SDS011;67762;52.476;6.046;2023-08-06T09:27:51;1999.90;;;999.90;;
43819;SDS011;67762;52.476;6.046;2023-08-06T09:30:33;1999.90;;;999.90;;
43819;SDS011;67762;52.476;6.046;2023-08-06T09:33:01;1999.90;;;999.90;;
43819;SDS011;67762;52.476;6.046;2023-08-06T09:35:30;1999.90;;;999.90;;
43819;SDS011;67762;52.476;6.046;2023-08-06T09:38:18;1999.90;;;999.90;;
43819;SDS011;67762;52.476;6.046;2023-08-06T09:40:42;1999.90;;;999.90;;
43819;SDS011;67762;52.476;6.046;2023-08-06T09:43:08;1999.90;;;999.90;;
43819;SDS011;67762;52.476;6.046;2023-08-06T09:45:34;1999.90;;;999.90;;
43819;SDS011;67762;52.476;6.046;2023-08-06T09:48:05;1999.90;;;999.90;;
43819;SDS011;67762;52.476;6.046;2023-08-06T09:50:32;1999.90;;;999.90;;
43819;SDS011;67762;52.476;6.046;2023-08-06T09:53:03;203.32;;;193.43;;
43819;SDS011;67762;52.476;6.046;2023-08-06T09:55:30;103.15;;;98.18;;
43819;SDS011;67762;52.476;6.046;2023-08-06T09:57:57;81.45;;;77.53;;
43819;SDS011;67762;52.476;6.046;2023-08-06T10:00:23;162.82;;;154.77;;
43819;SDS011;67762;52.476;6.046;2023-08-06T10:02:49;124.72;;;118.70;;
43819;SDS011;67762;52.476;6.046;2023-08-06T10:05:20;90.15;;;85.80;;
43819;SDS011;67762;52.476;6.046;2023-08-06T10:07:46;101.93;;;97.00;;
43819;SDS011;67762;52.476;6.046;2023-08-06T10:10:12;90.75;;;86.38;;
43819;SDS011;67762;52.476;6.046;2023-08-06T10:12:42;77.28;;;73.57;;
43819;SDS011;67762;52.476;6.046;2023-08-06T10:15:13;50.00;;;47.50;;
43819;SDS011;67762;52.476;6.046;2023-08-06T10:17:42;50.03;;;47.60;;
43819;SDS011;67762;52.476;6.046;2023-08-06T10:20:10;56.53;;;53.78;;
43819;SDS011;67762;52.476;6.046;2023-08-06T10:22:38;55.35;;;52.60;;
43819;SDS011;67762;52.476;6.046;2023-08-06T10:25:08;48.78;;;46.38;;
43819;SDS011;67762;52.476;6.046;2023-08-06T10:32:58;48.50;;;46.10;;
43819;SDS011;67762;52.476;6.046;2023-08-06T10:38:04;49.20;;;46.80;;
43819;SDS011;67762;52.476;6.046;2023-08-06T10:40:33;56.13;;;53.35;;
43819;SDS011;67762;52.476;6.046;2023-08-06T10:43:02;62.90;;;59.88;;
43819;SDS011;67762;52.476;6.046;2023-08-06T10:45:29;130.63;;;124.30;;
43819;SDS011;67762;52.476;6.046;2023-08-06T10:47:56;339.17;;;322.33;;
43819;SDS011;67762;52.476;6.046;2023-08-06T10:50:23;232.63;;;221.60;;
43819;SDS011;67762;52.476;6.046;2023-08-06T10:52:49;119.38;;;113.57;;
43819;SDS011;67762;52.476;6.046;2023-08-06T10:55:21;138.90;;;132.18;;
43819;SDS011;67762;52.476;6.046;2023-08-06T10:57:48;52.60;;;50.05;;
43819;SDS011;67762;52.476;6.046;2023-08-06T11:00:14;53.20;;;50.60;;
43819;SDS011;67762;52.476;6.046;2023-08-06T11:02:40;73.45;;;69.93;;
43819;SDS011;67762;52.476;6.046;2023-08-06T11:05:10;84.63;;;80.55;;
43819;SDS011;67762;52.476;6.046;2023-08-06T11:07:36;103.68;;;98.70;;
43819;SDS011;67762;52.476;6.046;2023-08-06T11:12:30;71.78;;;68.10;;
43819;SDS011;67762;52.476;6.046;2023-08-06T11:14:59;119.30;;;113.55;;
43819;SDS011;67762;52.476;6.046;2023-08-06T11:17:27;58.13;;;55.28;;
43819;SDS011;67762;52.476;6.046;2023-08-06T11:19:53;49.78;;;47.38;;
43819;SDS011;67762;52.476;6.046;2023-08-06T11:22:20;67.13;;;63.88;;
43819;SDS011;67762;52.476;6.046;2023-08-06T11:24:47;58.75;;;55.88;;
43819;SDS011;67762;52.476;6.046;2023-08-06T11:27:16;45.80;;;43.60;;
43819;SDS011;67762;52.476;6.046;2023-08-06T11:29:42;200.02;;;190.40;;
43819;SDS011;67762;52.476;6.046;2023-08-06T11:32:09;69.50;;;66.13;;
43819;SDS011;67762;52.476;6.046;2023-08-06T11:34:36;65.65;;;62.45;;
43819;SDS011;67762;52.476;6.046;2023-08-06T11:37:02;111.65;;;106.28;;
43819;SDS011;67762;52.476;6.046;2023-08-06T11:39:31;133.35;;;126.88;;
43819;SDS011;67762;52.476;6.046;2023-08-06T11:42:02;75.63;;;71.97;;
43819;SDS011;67762;52.476;6.046;2023-08-06T11:44:32;46.08;;;43.85;;
43819;SDS011;67762;52.476;6.046;2023-08-06T11:47:01;41.38;;;39.38;;
43819;SDS011;67762;52.476;6.046;2023-08-06T11:52:16;56.05;;;53.35;;
43819;SDS011;67762;52.476;6.046;2023-08-06T11:54:59;38.45;;;36.55;;
43819;SDS011;67762;52.476;6.046;2023-08-06T11:57:29;46.22;;;44.00;;
43819;SDS011;67762;52.476;6.046;2023-08-06T12:02:41;73.43;;;69.88;;
43819;SDS011;67762;52.476;6.046;2023-08-06T12:05:11;168.48;;;160.27;;
43819;SDS011;67762;52.476;6.046;2023-08-06T12:07:38;176.68;;;168.13;;
43819;SDS011;67762;52.476;6.046;2023-08-06T12:10:07;225.55;;;214.75;;
43819;SDS011;67762;52.476;6.046;2023-08-06T12:12:33;196.43;;;186.98;;
43819;SDS011;67762;52.476;6.046;2023-08-06T12:15:00;278.40;;;265.02;;
43819;SDS011;67762;52.476;6.046;2023-08-06T12:17:25;121.95;;;116.05;;
43819;SDS011;67762;52.476;6.046;2023-08-06T12:19:51;182.00;;;173.23;;
43819;SDS011;67762;52.476;6.046;2023-08-06T12:22:18;84.80;;;80.70;;
43819;SDS011;67762;52.476;6.046;2023-08-06T12:24:44;123.72;;;117.72;;
43819;SDS011;67762;52.476;6.046;2023-08-06T12:27:11;121.70;;;115.80;;
43819;SDS011;67762;52.476;6.046;2023-08-06T12:29:40;196.25;;;186.77;;
43819;SDS011;67762;52.476;6.046;2023-08-06T12:32:07;118.50;;;112.80;;
43819;SDS011;67762;52.476;6.046;2023-08-06T12:34:33;73.78;;;70.18;;
43819;SDS011;67762;52.476;6.046;2023-08-06T12:36:59;120.13;;;114.32;;
43819;SDS011;67762;52.476;6.046;2023-08-06T12:39:24;68.53;;;65.20;;
43819;SDS011;67762;52.476;6.046;2023-08-06T12:41:50;160.18;;;152.20;;
43819;SDS011;67762;52.476;6.046;2023-08-06T12:44:16;222.35;;;211.68;;
43819;SDS011;67762;52.476;6.046;2023-08-06T12:46:41;126.45;;;120.35;;
43819;SDS011;67762;52.476;6.046;2023-08-06T12:49:07;63.45;;;60.33;;
43819;SDS011;67762;52.476;6.046;2023-08-06T12:51:32;84.97;;;80.88;;
43819;SDS011;67762;52.476;6.046;2023-08-06T12:53:59;74.32;;;70.70;;
43819;SDS011;67762;52.476;6.046;2023-08-06T12:56:25;70.30;;;66.88;;
43819;SDS011;67762;52.476;6.046;2023-08-06T12:58:50;56.85;;;54.08;;
43819;SDS011;67762;52.476;6.046;2023-08-06T13:01:16;47.58;;;45.25;;
43819;SDS011;67762;52.476;6.046;2023-08-06T13:03:41;46.33;;;44.03;;
43819;SDS011;67762;52.476;6.046;2023-08-06T13:06:07;44.85;;;42.65;;
43819;SDS011;67762;52.476;6.046;2023-08-06T13:08:34;1999.90;;;999.90;;
43819;SDS011;67762;52.476;6.046;2023-08-06T13:11:01;1999.90;;;999.90;;
43819;SDS011;67762;52.476;6.046;2023-08-06T13:13:26;1999.90;;;999.90;;
43819;SDS011;67762;52.476;6.046;2023-08-06T13:15:52;1999.90;;;999.90;;
43819;SDS011;67762;52.476;6.046;2023-08-06T13:18:18;1999.90;;;999.90;;
43819;SDS011;67762;52.476;6.046;2023-08-06T13:20:43;94.97;;;88.70;;
43819;SDS011;67762;52.476;6.046;2023-08-06T13:23:09;1999.90;;;999.90;;
43819;SDS011;67762;52.476;6.046;2023-08-06T13:25:35;1062.20;;;558.22;;
43819;SDS011;67762;52.476;6.046;2023-08-06T13:28:02;140.80;;;132.52;;
43819;SDS011;67762;52.476;6.046;2023-08-06T13:30:28;122.88;;;116.10;;
43819;SDS011;67762;52.476;6.046;2023-08-06T13:32:54;1030.28;;;528.70;;
43819;SDS011;67762;52.476;6.046;2023-08-06T13:35:22;1063.70;;;560.30;;
43819;SDS011;67762;52.476;6.046;2023-08-06T13:37:48;59.42;;;56.22;;
43819;SDS011;67762;52.476;6.046;2023-08-06T13:40:14;55.85;;;52.95;;
43819;SDS011;67762;52.476;6.046;2023-08-06T13:42:40;65.20;;;61.92;;
43819;SDS011;67762;52.476;6.046;2023-08-06T13:45:06;45.13;;;42.75;;
43819;SDS011;67762;52.476;6.046;2023-08-06T13:47:32;43.58;;;41.47;;
43819;SDS011;67762;52.476;6.046;2023-08-06T13:49:58;46.00;;;43.63;;
43819;SDS011;67762;52.476;6.046;2023-08-06T13:52:25;57.28;;;54.45;;
43819;SDS011;67762;52.476;6.046;2023-08-06T13:54:52;70.50;;;66.80;;
43819;SDS011;67762;52.476;6.046;2023-08-06T13:57:18;51.38;;;48.88;;
43819;SDS011;67762;52.476;6.046;2023-08-06T13:59:43;48.33;;;45.97;;
43819;SDS011;67762;52.476;6.046;2023-08-06T14:02:09;126.95;;;120.82;;
43819;SDS011;67762;52.476;6.046;2023-08-06T14:04:35;86.70;;;82.53;;
43819;SDS011;67762;52.476;6.046;2023-08-06T14:07:02;69.53;;;66.18;;
43819;SDS011;67762;52.476;6.046;2023-08-06T14:09:29;57.10;;;54.13;;
43819;SDS011;67762;52.476;6.046;2023-08-06T14:11:55;68.85;;;65.50;;